Lago Vista, Texas
Current Conditions -  °F | °C
As of 10:55 AM on Thursday 30 Oct 2014 (Local Time) from KRYW Reporting Station
Clear Clear  
Wind Chill: 70°   Ceiling: Unl
Heat Index: 70°   Visibility: 10mi
Dew Point: 54°   Wind: 6mph
Humidity: 58%   Direction: 180°S
Pressure: 30.18"   Gusts: NA
Location:  30.4521°N, 97.9683°W
Report Text: KRYW 301555Z AUTO 18005KT 10SM CLR 21/12 A3018 RMK AO2 T02100124
Loading
Personal Weather Stations






























Interactive Weather Map
Tropical Storm Tracking
New forecast layout! Learn more

10-Day Weather Forecast

Advertisements
Track Severe Weather on mobile